Time;durP1;ratioP1;P1;durP2;ratioP2;P2;SDS_P1;SDS_P2;PMS_P1;PMS_P2;Temp;Humidity;BMP_temperature;BMP_pressure;BME280_temperature;BME280_humidity;BME280_pressure;Samples;Min_cycle;Max_cycle;Signal;HPM_P1;HPM_P2
2023/05/09 00:01:36;;;;;;;39.25;23.23;;;;;;;14.06;100.00;101608.31;4854251;29;20118;-73
2023/05/09 00:04:01;;;;;;;38.85;23.38;;;;;;;14.07;100.00;101610.91;4853907;29;20030;-73
2023/05/09 00:06:27;;;;;;;40.80;24.10;;;;;;;14.07;100.00;101615.41;4856329;29;20524;-73
2023/05/09 00:08:55;;;;;;;37.10;22.30;;;;;;;14.07;100.00;101610.00;4857467;29;20049;-74
2023/05/09 00:11:21;;;;;;;40.55;23.00;;;;;;;14.08;100.00;101609.03;4857559;29;20040;-74
2023/05/09 00:13:46;;;;;;;38.15;23.17;;;;;;;14.06;100.00;101613.72;4859520;29;20378;-73
2023/05/09 00:16:12;;;;;;;37.92;22.20;;;;;;;14.06;100.00;101603.75;4859160;29;20029;-74
2023/05/09 00:18:41;;;;;;;34.92;20.75;;;;;;;14.05;100.00;101596.63;4853881;29;20057;-74
2023/05/09 00:21:06;;;;;;;36.15;20.33;;;;;;;14.05;100.00;101590.34;4857003;29;20056;-73
2023/05/09 00:23:32;;;;;;;32.67;20.55;;;;;;;14.05;100.00;101590.34;4857045;29;20029;-73
2023/05/09 00:25:58;;;;;;;33.50;19.33;;;;;;;14.05;100.00;101588.50;4859227;29;20049;-73
2023/05/09 00:28:23;;;;;;;34.97;20.55;;;;;;;14.04;100.00;101594.03;4857205;29;20620;-73
2023/05/09 00:30:48;;;;;;;34.15;19.23;;;;;;;14.05;100.00;101595.75;4850745;29;20037;-73
2023/05/09 00:33:14;;;;;;;34.92;20.05;;;;;;;14.05;100.00;101585.81;4853450;29;20045;-73
2023/05/09 00:35:39;;;;;;;34.67;19.35;;;;;;;14.04;100.00;101580.50;4858749;29;20070;-73
2023/05/09 00:38:04;;;;;;;34.67;19.80;;;;;;;14.05;100.00;101576.84;4857130;29;20116;-73
2023/05/09 00:40:30;;;;;;;31.25;19.02;;;;;;;14.06;100.00;101581.28;4855554;29;20048;-73
2023/05/09 00:42:57;;;;;;;32.10;20.20;;;;;;;14.06;100.00;101575.88;4847067;29;20549;-74
2023/05/09 00:45:23;;;;;;;33.95;18.10;;;;;;;14.08;100.00;101577.47;4856738;29;20044;-74
2023/05/09 00:47:48;;;;;;;30.65;17.13;;;;;;;14.06;100.00;101578.56;4857268;29;20026;-73
2023/05/09 00:50:13;;;;;;;30.75;17.50;;;;;;;14.07;100.00;101566.75;4854705;29;20132;-73
2023/05/09 00:52:39;;;;;;;32.05;17.70;;;;;;;14.10;100.00;101569.22;4850831;29;20040;-75
2023/05/09 00:55:07;;;;;;;32.78;17.60;;;;;;;14.09;100.00;101564.81;4842971;29;20041;-73
2023/05/09 00:57:32;;;;;;;32.65;18.65;;;;;;;14.08;100.00;101563.94;4853126;29;20064;-75
2023/05/09 00:59:59;;;;;;;31.13;17.70;;;;;;;14.07;100.00;101556.84;4855360;29;20026;-73
2023/05/09 01:02:24;;;;;;;31.20;16.17;;;;;;;14.06;100.00;101551.53;4853737;29;20044;-73
2023/05/09 01:04:49;;;;;;;30.05;17.10;;;;;;;14.04;100.00;101557.06;4857266;29;20026;-75
2023/05/09 01:07:24;;;;;;;32.95;18.10;;;;;;;14.05;100.00;101550.66;4858194;29;20105;-73
2023/05/09 01:10:13;;;;;;;33.90;18.35;;;;;;;14.02;100.00;101542.78;4849269;29;20122;-73
2023/05/09 01:12:46;;;;;;;30.50;16.83;;;;;;;14.00;100.00;101544.78;4852499;29;20034;-73
2023/05/09 01:15:20;;;;;;;31.63;16.95;;;;;;;14.01;100.00;101535.66;4871781;29;20033;-74
2023/05/09 01:18:04;;;;;;;30.58;17.27;;;;;;;14.01;100.00;101535.66;4857875;29;20117;-73
2023/05/09 01:20:34;;;;;;;30.73;17.15;;;;;;;13.98;100.00;101531.38;4855811;29;20109;-74
2023/05/09 01:23:11;;;;;;;30.35;17.75;;;;;;;13.99;100.00;101522.25;4855100;29;20026;-74
2023/05/09 01:26:07;;;;;;;28.23;16.15;;;;;;;14.01;100.00;101515.88;4850985;29;20052;-73
2023/05/09 01:28:46;;;;;;;31.45;15.75;;;;;;;13.96;100.00;101517.09;4857079;29;20144;-74
2023/05/09 01:31:12;;;;;;;31.33;17.73;;;;;;;13.93;100.00;101511.94;4856467;29;20033;-73
2023/05/09 01:33:39;;;;;;;30.42;16.20;;;;;;;13.93;100.00;101519.19;4856229;29;20403;-73
2023/05/09 01:36:10;;;;;;;28.60;16.75;;;;;;;13.92;100.00;101510.19;4856787;29;20045;-73
2023/05/09 01:38:37;;;;;;;29.00;16.63;;;;;;;13.91;100.00;101504.91;4848929;29;20033;-73
2023/05/09 01:41:05;;;;;;;28.95;16.45;;;;;;;13.92;100.00;101494.00;4856675;29;20030;-73
2023/05/09 01:43:32;;;;;;;28.63;16.25;;;;;;;13.92;100.00;101494.00;4855941;29;20056;-73
2023/05/09 01:45:58;;;;;;;34.97;17.67;;;;;;;13.90;100.00;101495.97;4855850;29;20064;-74
2023/05/09 01:48:25;;;;;;;31.40;16.98;;;;;;;13.90;100.00;101490.56;4856191;29;20065;-73
2023/05/09 01:50:52;;;;;;;31.67;17.23;;;;;;;13.90;100.00;101478.91;4855756;29;20125;-74
2023/05/09 01:53:20;;;;;;;31.75;16.67;;;;;;;13.90;100.00;101487.00;4849609;29;20537;-76
2023/05/09 01:55:47;;;;;;;28.75;15.32;;;;;;;13.87;100.00;101482.69;4849865;29;20125;-74
2023/05/09 01:58:14;;;;;;;28.33;15.73;;;;;;;13.89;100.00;101479.88;4854132;29;20022;-73
2023/05/09 02:00:39;;;;;;;26.02;15.30;;;;;;;13.89;100.00;101474.47;4853133;29;20062;-73
2023/05/09 02:03:05;;;;;;;31.05;16.88;;;;;;;13.85;100.00;101470.28;4856078;29;20033;-74
2023/05/09 02:05:31;;;;;;;28.45;16.23;;;;;;;13.85;100.00;101470.28;4856066;29;20503;-74
2023/05/09 02:07:58;;;;;;;34.00;17.58;;;;;;;13.83;100.00;101467.69;4853724;29;20025;-74
2023/05/09 02:10:25;;;;;;;30.30;16.30;;;;;;;13.79;100.00;101464.38;4848050;29;20123;-73
2023/05/09 02:12:51;;;;;;;29.02;16.70;;;;;;;13.78;100.00;101462.66;4854367;29;20054;-73
2023/05/09 02:15:16;;;;;;;36.88;17.08;;;;;;;13.76;100.00;101461.91;4858812;29;20041;-73
2023/05/09 02:17:42;;;;;;;30.02;16.63;;;;;;;13.77;100.00;101466.31;4857493;29;20442;-73
2023/05/09 02:20:09;;;;;;;28.85;16.42;;;;;;;13.76;100.00;101467.31;4858515;29;20029;-73
2023/05/09 02:22:35;;;;;;;29.67;16.23;;;;;;;13.77;100.00;101481.69;4850755;29;20557;-73
2023/05/09 02:25:03;;;;;;;33.35;16.75;;;;;;;13.77;100.00;101487.09;4858298;29;20370;-73
2023/05/09 02:27:30;;;;;;;31.17;17.88;;;;;;;13.77;100.00;101484.38;4859565;29;20074;-73
2023/05/09 02:30:00;;;;;;;31.50;17.52;;;;;;;13.76;100.00;101474.53;4860808;29;20033;-74
2023/05/09 02:32:29;;;;;;;29.55;17.75;;;;;;;13.76;100.00;101471.84;4859588;29;20029;-74
2023/05/09 02:34:57;;;;;;;30.88;17.70;;;;;;;13.73;100.00;101474.78;4854514;29;20030;-74
2023/05/09 02:37:24;;;;;;;36.83;16.63;;;;;;;13.72;100.00;101476.63;4849820;29;20558;-73
2023/05/09 02:39:49;;;;;;;29.17;15.85;;;;;;;13.73;100.00;101482.88;4859196;29;20033;-73
2023/05/09 02:42:21;;;;;;;29.17;16.33;;;;;;;13.71;100.00;101479.44;4853695;29;20036;-74
2023/05/09 02:44:46;;;;;;;33.17;18.15;;;;;;;13.70;100.00;101464.22;4853179;29;20029;-74
2023/05/09 02:47:11;;;;;;;31.25;15.77;;;;;;;13.69;100.00;101454.38;4857663;29;20018;-73
2023/05/09 02:49:37;;;;;;;30.65;16.67;;;;;;;13.69;100.00;101455.25;4856663;29;20277;-74
2023/05/09 02:52:02;;;;;;;29.88;16.27;;;;;;;13.65;100.00;101451.06;4859926;29;20061;-75
2023/05/09 02:54:28;;;;;;;28.30;16.23;;;;;;;13.66;100.00;101450.09;4848437;29;20037;-73
2023/05/09 02:56:53;;;;;;;33.83;17.10;;;;;;;13.62;100.00;101448.59;4856179;29;20037;-74
2023/05/09 02:59:19;;;;;;;32.75;17.00;;;;;;;13.61;100.00;101444.19;4856947;29;20041;-74
2023/05/09 03:01:45;;;;;;;32.33;18.05;;;;;;;13.58;100.00;101439.84;4854974;29;20053;-73
2023/05/09 03:04:10;;;;;;;30.40;16.33;;;;;;;13.56;100.00;101440.97;4851332;29;20504;-74
2023/05/09 03:06:36;;;;;;;32.50;17.35;;;;;;;13.56;100.00;101432.88;4848710;29;20109;-73
2023/05/09 03:09:01;;;;;;;30.75;17.83;;;;;;;13.55;100.00;101431.16;4850708;29;20037;-73
2023/05/09 03:11:28;;;;;;;33.90;17.17;;;;;;;13.54;100.00;101424.88;4855436;29;20036;-73
2023/05/09 03:13:53;;;;;;;31.88;17.25;;;;;;;13.55;100.00;101426.59;4856796;29;20482;-74
2023/05/09 03:16:19;;;;;;;32.10;16.33;;;;;;;13.55;100.00;101425.75;4859005;29;20075;-74
2023/05/09 03:18:44;;;;;;;30.65;16.33;;;;;;;13.54;100.00;101426.72;4858890;29;20049;-73
2023/05/09 03:21:09;;;;;;;30.48;16.65;;;;;;;13.54;100.00;101426.72;4856390;29;20033;-74
2023/05/09 03:23:35;;;;;;;32.55;17.45;;;;;;;13.55;100.00;101420.34;4858630;29;20041;-74
2023/05/09 03:26:00;;;;;;;29.83;16.30;;;;;;;13.55;100.00;101414.94;4852488;29;20066;-74
2023/05/09 03:28:27;;;;;;;31.80;16.80;;;;;;;13.53;100.00;101423.16;4854044;29;20068;-73
2023/05/09 03:30:52;;;;;;;30.23;16.80;;;;;;;13.53;100.00;101422.28;4860147;29;20037;-74
2023/05/09 03:33:17;;;;;;;31.73;17.27;;;;;;;13.52;100.00;101415.19;4858106;29;20033;-74
2023/05/09 03:35:43;;;;;;;33.33;18.25;;;;;;;13.52;100.00;101409.78;4858547;29;20033;-74
2023/05/09 03:38:08;;;;;;;31.05;18.20;;;;;;;13.52;100.00;101412.47;4859363;29;20382;-74
2023/05/09 03:40:34;;;;;;;34.20;18.67;;;;;;;13.51;100.00;101413.44;4855256;29;20347;-74
2023/05/09 03:42:59;;;;;;;32.85;18.20;;;;;;;13.51;100.00;101405.34;4858038;29;20033;-73
2023/05/09 03:45:25;;;;;;;36.22;18.88;;;;;;;13.49;100.00;101400.06;4858432;29;20383;-74
2023/05/09 03:47:50;;;;;;;30.83;17.83;;;;;;;13.48;100.00;101409.13;4853979;29;20034;-74
2023/05/09 03:50:15;;;;;;;32.78;17.15;;;;;;;13.48;100.00;101403.75;4856435;29;20069;-74
2023/05/09 03:52:41;;;;;;;36.17;20.25;;;;;;;13.47;100.00;101396.63;4854312;29;20112;-73
2023/05/09 03:55:07;;;;;;;33.40;18.60;;;;;;;13.46;100.00;101394.91;4851105;29;20061;-73
2023/05/09 03:57:33;;;;;;;28.95;16.10;;;;;;;13.45;100.00;101394.03;4856594;29;20036;-75
2023/05/09 03:59:59;;;;;;;33.10;16.50;;;;;;;13.45;100.00;101394.03;4856499;29;20032;-74
2023/05/09 04:02:24;;;;;;;32.58;17.92;;;;;;;13.46;100.00;101389.50;4851887;29;20046;-73
2023/05/09 04:04:51;;;;;;;29.40;17.00;;;;;;;13.46;100.00;101384.09;4859216;29;20034;-73
2023/05/09 04:07:17;;;;;;;34.47;17.73;;;;;;;13.48;100.00;101378.59;4854791;29;20486;-73
2023/05/09 04:09:42;;;;;;;31.63;17.15;;;;;;;13.47;100.00;101369.63;4853766;29;20026;-74
2023/05/09 04:12:08;;;;;;;31.40;15.40;;;;;;;13.49;100.00;101370.38;4857831;29;20405;-75
2023/05/09 04:14:33;;;;;;;28.77;15.27;;;;;;;13.48;100.00;101359.69;4856546;29;20040;-75
2023/05/09 04:16:58;;;;;;;33.22;16.00;;;;;;;13.47;100.00;101364.25;4855044;29;20109;-74
2023/05/09 04:19:24;;;;;;;25.98;14.75;;;;;;;13.49;100.00;101364.97;4857133;29;20063;-73
2023/05/09 04:21:49;;;;;;;28.48;15.02;;;;;;;13.49;100.00;101356.88;4852924;29;20045;-74
2023/05/09 04:24:14;;;;;;;28.10;14.02;;;;;;;13.49;100.00;101359.56;4855724;29;20021;-74
2023/05/09 04:26:40;;;;;;;26.85;14.95;;;;;;;13.51;100.00;101364.84;4852491;29;20041;-73
2023/05/09 04:29:05;;;;;;;29.42;14.77;;;;;;;13.51;100.00;101368.41;4858740;29;20113;-73
2023/05/09 04:31:31;;;;;;;25.98;15.63;;;;;;;13.51;100.00;101365.69;4857300;29;20033;-73
2023/05/09 04:33:59;;;;;;;26.27;14.07;;;;;;;13.53;100.00;101362.88;4859450;29;20029;-73
2023/05/09 04:36:26;;;;;;;29.23;14.20;;;;;;;13.53;100.00;101363.75;4843777;29;20057;-74
2023/05/09 04:38:51;;;;;;;27.48;13.85;;;;;;;13.54;100.00;101357.34;4857039;29;20116;-74
2023/05/09 04:41:16;;;;;;;26.73;13.50;;;;;;;13.53;100.00;101355.66;4853985;29;20186;-75
2023/05/09 04:43:42;;;;;;;27.33;13.40;;;;;;;13.57;100.00;101356.25;4856448;29;20041;-74
2023/05/09 04:46:07;;;;;;;28.48;12.88;;;;;;;13.59;100.00;101351.63;4856931;29;20044;-73
2023/05/09 04:48:34;;;;;;;24.60;12.60;;;;;;;13.60;100.00;101346.09;4848532;29;20021;-74
2023/05/09 04:50:59;;;;;;;30.77;14.15;;;;;;;13.63;100.00;101342.25;4852385;29;20799;-74
2023/05/09 04:53:25;;;;;;;26.25;13.23;;;;;;;13.64;100.00;101339.44;4852547;29;20105;-76
2023/05/09 04:55:50;;;;;;;26.13;13.55;;;;;;;13.68;100.00;101340.09;4847790;29;20491;-75
2023/05/09 04:58:16;;;;;;;25.40;12.63;;;;;;;13.73;100.00;101337.00;4860946;29;20413;-76
2023/05/09 05:00:41;;;;;;;24.88;12.40;;;;;;;13.74;100.00;101333.34;4853969;29;20125;-76
2023/05/09 05:03:06;;;;;;;24.75;12.57;;;;;;;13.73;100.00;101329.75;4855404;29;20113;-75
2023/05/09 05:05:32;;;;;;;26.48;12.15;;;;;;;13.73;100.00;101323.50;4858223;29;20037;-75
2023/05/09 05:07:57;;;;;;;26.15;12.00;;;;;;;13.73;100.00;101318.09;4859734;29;20463;-75
2023/05/09 05:10:22;;;;;;;25.88;12.85;;;;;;;13.73;100.00;101304.59;4861624;29;20090;-75
2023/05/09 05:12:47;;;;;;;23.40;11.70;;;;;;;13.75;100.00;101305.34;4857105;29;20362;-75
2023/05/09 05:15:13;;;;;;;25.23;12.25;;;;;;;13.75;100.00;101299.94;4849948;29;20551;-76
2023/05/09 05:17:38;;;;;;;25.90;12.70;;;;;;;13.77;100.00;101288.00;4859360;29;20029;-75
2023/05/09 05:20:05;;;;;;;25.67;13.65;;;;;;;13.79;100.00;101304.09;4855296;29;20098;-75
2023/05/09 05:22:31;;;;;;;26.95;12.57;;;;;;;13.83;100.00;101293.94;4855081;29;20034;-76
2023/05/09 05:24:56;;;;;;;26.33;13.10;;;;;;;13.84;100.00;101295.66;4855437;29;20508;-75
2023/05/09 05:27:21;;;;;;;25.70;12.25;;;;;;;13.84;100.00;101293.81;4859305;29;20022;-75
2023/05/09 05:29:47;;;;;;;26.83;11.98;;;;;;;13.86;100.00;101282.88;4857257;29;20605;-76
2023/05/09 05:32:12;;;;;;;24.88;12.45;;;;;;;13.90;100.00;101290.59;4858108;29;20029;-76
2023/05/09 05:34:38;;;;;;;28.95;13.45;;;;;;;13.93;100.00;101282.25;4849508;29;20116;-77
2023/05/09 05:37:03;;;;;;;27.45;13.30;;;;;;;13.97;100.00;101291.81;4847748;29;20125;-75
2023/05/09 05:39:29;;;;;;;27.10;13.43;;;;;;;14.04;100.00;101285.91;4859454;29;20113;-75
2023/05/09 05:41:54;;;;;;;29.25;14.98;;;;;;;14.05;100.00;101283.09;4853909;29;20072;-76
2023/05/09 05:44:19;;;;;;;24.80;13.90;;;;;;;14.11;100.00;101279.03;4855835;29;20036;-76
2023/05/09 05:46:45;;;;;;;25.20;12.27;;;;;;;14.14;100.00;101273.38;4851461;29;20121;-75
2023/05/09 05:49:10;;;;;;;26.35;12.90;;;;;;;14.16;100.00;101283.09;4855112;29;20076;-76
2023/05/09 05:51:35;;;;;;;25.13;11.52;;;;;;;14.21;100.00;101280.00;4854836;29;20082;-76
2023/05/09 05:54:01;;;;;;;25.88;14.07;;;;;;;14.24;100.00;101278.91;4854632;29;20073;-77
2023/05/09 05:56:26;;;;;;;25.40;13.63;;;;;;;14.25;100.00;101265.25;4852868;29;20092;-75
2023/05/09 05:58:52;;;;;;;26.90;12.73;;;;;;;14.27;100.00;101265.13;4853273;29;20093;-75
2023/05/09 06:01:18;;;;;;;25.40;12.38;;;;;;;14.30;100.00;101264.88;4858423;29;20132;-75
2023/05/09 06:03:43;;;;;;;29.58;13.57;;;;;;;14.30;100.00;101268.41;4863063;29;20730;-76
2023/05/09 06:06:09;;;;;;;38.40;15.55;;;;;;;14.32;100.00;101261.06;4856705;29;20405;-75
2023/05/09 06:08:34;;;;;;;27.88;13.73;;;;;;;14.36;100.00;101264.34;4860922;29;20386;-75
2023/05/09 06:10:59;;;;;;;28.02;15.07;;;;;;;14.39;100.00;101255.97;4858157;29;20037;-76
2023/05/09 06:13:25;;;;;;;27.73;13.40;;;;;;;14.43;100.00;101256.59;4858870;29;20098;-76
2023/05/09 06:15:54;;;;;;;27.05;13.93;;;;;;;14.44;100.00;101255.63;4862963;29;20664;-76
2023/05/09 06:18:19;;;;;;;26.83;12.95;;;;;;;14.45;100.00;101251.91;4861201;29;20038;-76
2023/05/09 06:20:44;;;;;;;28.08;13.57;;;;;;;14.47;100.00;101253.50;4850284;29;20049;-77
2023/05/09 06:23:10;;;;;;;28.35;12.93;;;;;;;14.49;100.00;101258.78;4860774;29;20030;-76
2023/05/09 06:25:35;;;;;;;26.35;13.00;;;;;;;14.52;100.00;101242.31;4854936;29;20034;-76
2023/05/09 06:28:00;;;;;;;25.77;13.35;;;;;;;14.55;100.00;101244.75;4859561;29;20496;-76
2023/05/09 06:30:26;;;;;;;24.13;12.20;;;;;;;14.54;100.00;101248.47;4861590;29;20021;-78
2023/05/09 06:32:51;;;;;;;26.48;13.23;;;;;;;14.56;100.00;101242.91;4852079;29;20120;-76
2023/05/09 06:35:16;;;;;;;25.75;12.57;;;;;;;14.57;100.00;101241.91;4854210;29;20029;-76
2023/05/09 06:37:42;;;;;;;24.42;12.90;;;;;;;14.60;100.00;101242.53;4855323;29;20033;-76
2023/05/09 06:40:07;;;;;;;26.40;14.60;;;;;;;14.60;100.00;101242.53;4861479;29;20029;-76
2023/05/09 06:42:33;;;;;;;24.45;13.25;;;;;;;14.64;100.00;101235.03;4853569;29;20056;-77
2023/05/09 06:44:58;;;;;;;26.70;13.20;;;;;;;14.67;100.00;101232.94;4861518;29;20044;-77
2023/05/09 06:47:23;;;;;;;26.63;13.30;;;;;;;14.69;100.00;101235.50;4852743;29;20454;-77
2023/05/09 06:49:49;;;;;;;25.55;12.55;;;;;;;14.72;100.00;101232.53;4851047;29;20050;-76
2023/05/09 06:52:14;;;;;;;25.50;12.38;;;;;;;14.76;100.00;101225.00;4859327;29;20033;-76
2023/05/09 06:54:40;;;;;;;25.73;12.68;;;;;;;14.78;100.00;101221.19;4851466;29;20072;-76
2023/05/09 06:57:05;;;;;;;22.92;11.50;;;;;;;14.81;100.00;101215.50;4856388;29;20065;-76
2023/05/09 06:59:30;;;;;;;24.85;12.63;;;;;;;14.84;100.00;101217.09;4854345;29;20069;-76
2023/05/09 07:01:56;;;;;;;23.88;11.38;;;;;;;14.86;100.00;101217.81;4858462;29;20022;-77
2023/05/09 07:04:21;;;;;;;24.80;12.00;;;;;;;14.87;100.00;101213.28;4852184;29;20085;-78
2023/05/09 07:06:46;;;;;;;25.30;11.70;;;;;;;14.85;100.00;101213.41;4852925;29;20037;-76
2023/05/09 07:09:14;;;;;;;24.77;12.02;;;;;;;14.85;100.00;101213.41;4860138;29;20101;-77
2023/05/09 07:11:39;;;;;;;26.50;11.95;;;;;;;14.86;100.00;101212.41;4859026;29;20033;-76
2023/05/09 07:14:04;;;;;;;23.27;11.43;;;;;;;14.90;100.00;101208.47;4858910;29;20034;-77
2023/05/09 07:16:30;;;;;;;23.98;11.80;;;;;;;14.93;100.00;101201.94;4859094;29;20033;-77
2023/05/09 07:18:55;;;;;;;23.70;12.02;;;;;;;14.94;100.00;101207.22;4858846;29;20402;-77
2023/05/09 07:21:20;;;;;;;24.38;11.90;;;;;;;14.94;100.00;101199.09;4859362;29;20037;-78
2023/05/09 07:23:45;;;;;;;23.77;11.30;;;;;;;14.92;100.00;101201.09;4853915;29;20025;-78
2023/05/09 07:26:11;;;;;;;23.38;10.93;;;;;;;14.91;100.00;101201.22;4856555;29;20033;-78
2023/05/09 07:28:36;;;;;;;21.00;10.85;;;;;;;14.88;100.00;101198.78;4856170;29;20073;-78
2023/05/09 07:31:02;;;;;;;23.13;10.77;;;;;;;14.86;100.00;101207.00;4853856;29;20034;-78
2023/05/09 07:33:27;;;;;;;22.85;10.57;;;;;;;14.84;100.00;101195.47;4859228;29;20494;-78
2023/05/09 07:35:52;;;;;;;23.92;10.35;;;;;;;14.81;100.00;101203.84;4857154;29;20030;-78
2023/05/09 07:38:18;;;;;;;20.98;9.63;;;;;;;14.76;100.00;101195.25;4858090;29;20542;-78
2023/05/09 07:40:43;;;;;;;20.95;9.90;;;;;;;14.74;100.00;101199.94;4852365;29;20030;-78
2023/05/09 07:43:08;;;;;;;21.58;9.82;;;;;;;14.73;100.00;101199.09;4856242;29;20124;-78
2023/05/09 07:45:34;;;;;;;21.52;10.50;;;;;;;14.74;100.00;101194.53;4857713;29;20057;-78
2023/05/09 07:47:59;;;;;;;21.45;10.98;;;;;;;14.74;100.00;101189.13;4853786;29;20022;-78
2023/05/09 07:50:24;;;;;;;23.75;11.18;;;;;;;14.74;100.00;101195.38;4856773;29;20068;-78
2023/05/09 07:52:50;;;;;;;22.80;10.85;;;;;;;14.76;100.00;101192.53;4857751;29;20470;-78
2023/05/09 07:55:16;;;;;;;22.85;10.43;;;;;;;14.77;100.00;101186.16;4854272;29;20105;-78
2023/05/09 07:57:41;;;;;;;20.85;10.45;;;;;;;14.79;100.00;101179.63;4853719;29;20032;-77
2023/05/09 08:00:07;;;;;;;24.77;10.25;;;;;;;14.80;100.00;101184.06;4856526;29;20032;-79
2023/05/09 08:02:33;;;;;;;22.77;11.60;;;;;;;14.80;100.00;101164.25;4849415;29;20036;-78
2023/05/09 08:04:58;;;;;;;23.42;11.20;;;;;;;14.83;100.00;101167.56;4852258;29;20041;-77
2023/05/09 08:07:24;;;;;;;26.50;10.98;;;;;;;14.89;100.00;101170.69;4850933;29;20192;-79
2023/05/09 08:09:49;;;;;;;22.83;11.18;;;;;;;14.94;100.00;101165.75;4855017;29;20509;-78
2023/05/09 08:12:14;;;;;;;21.70;10.68;;;;;;;14.95;100.00;101159.34;4853966;29;20021;-78
2023/05/09 08:14:40;;;;;;;21.63;10.00;;;;;;;14.98;100.00;101157.25;4859894;29;20040;-77
2023/05/09 08:17:05;;;;;;;20.70;10.05;;;;;;;15.01;100.00;101161.53;4853388;29;20706;-77
2023/05/09 08:19:30;;;;;;;21.65;10.07;;;;;;;15.05;100.00;101156.69;4852909;29;20037;-77
2023/05/09 08:21:56;;;;;;;19.63;9.50;;;;;;;15.11;100.00;101142.63;4855697;29;20566;-77
2023/05/09 08:24:21;;;;;;;19.45;8.40;;;;;;;15.12;100.00;101147.03;4853332;29;20040;-78
2023/05/09 08:26:46;;;;;;;19.55;8.85;;;;;;;15.15;100.00;101141.34;4856984;29;20037;-77
2023/05/09 08:29:11;;;;;;;20.27;8.45;;;;;;;15.11;100.00;101143.50;4856807;29;20021;-77
2023/05/09 08:31:37;;;;;;;21.50;9.27;;;;;;;15.08;100.00;101132.06;4852090;29;20034;-78
2023/05/09 08:34:03;;;;;;;20.92;9.52;;;;;;;15.10;100.00;101136.34;4855564;29;20049;-78
2023/05/09 08:36:28;;;;;;;22.10;9.10;;;;;;;15.08;100.00;101129.34;4855314;29;20532;-77
2023/05/09 08:38:53;;;;;;;20.25;8.60;;;;;;;15.12;100.00;101128.09;4858683;29;20121;-77
2023/05/09 08:41:26;;;;;;;21.25;9.38;;;;;;;15.14;100.00;101123.38;4854598;29;20490;-77
2023/05/09 08:43:52;;;;;;;21.10;9.27;;;;;;;15.12;100.00;101125.38;4858131;29;20040;-77
2023/05/09 08:46:27;;;;;;;23.50;10.77;;;;;;;15.11;100.00;101120.97;4857949;29;20029;-78
2023/05/09 08:48:53;;;;;;;20.83;10.55;;;;;;;15.10;100.00;101119.25;4851943;29;20786;-77
2023/05/09 08:51:20;;;;;;;21.17;10.32;;;;;;;15.08;100.00;101123.94;4850956;29;20236;-77
2023/05/09 08:53:46;;;;;;;21.33;10.50;;;;;;;15.07;100.00;101122.25;4855384;29;20089;-78
2023/05/09 08:56:12;;;;;;;21.27;9.80;;;;;;;15.05;100.00;101113.38;4854729;29;20068;-77
2023/05/09 08:58:37;;;;;;;19.00;9.20;;;;;;;15.05;100.00;101114.22;4854549;29;20478;-78
2023/05/09 09:01:06;;;;;;;21.30;9.10;;;;;;;15.06;100.00;101109.69;4851299;29;20078;-78
2023/05/09 09:03:32;;;;;;;22.45;8.27;;;;;;;15.05;100.00;101110.69;4850506;29;20032;-78
2023/05/09 09:05:57;;;;;;;22.42;8.68;;;;;;;15.04;100.00;101107.13;4854422;29;20029;-77
2023/05/09 09:08:25;;;;;;;18.85;8.32;;;;;;;15.03;100.00;101113.53;4851745;29;20038;-78
2023/05/09 09:10:51;;;;;;;19.45;7.40;;;;;;;15.01;100.00;101105.53;4853391;29;20122;-78
2023/05/09 09:13:17;;;;;;;22.90;8.45;;;;;;;15.01;100.00;101105.53;4857411;29;20120;-78
2023/05/09 09:15:45;;;;;;;20.60;8.23;;;;;;;15.02;100.00;101103.69;4856834;29;20037;-78
2023/05/09 09:18:27;;;;;;;19.50;8.25;;;;;;;14.98;100.00;101100.41;4850782;29;20501;-78
2023/05/09 09:20:57;;;;;;;25.50;8.38;;;;;;;14.92;100.00;101100.94;4854971;29;20796;-77
2023/05/09 09:23:24;;;;;;;18.27;7.45;;;;;;;14.90;100.00;101102.06;4850628;29;20030;-78
2023/05/09 09:25:56;;;;;;;19.15;7.53;;;;;;;14.89;100.00;101095.81;4852365;29;20093;-78
2023/05/09 09:28:22;;;;;;;18.70;7.95;;;;;;;14.95;100.00;101092.56;4856580;29;20025;-77
2023/05/09 09:30:47;;;;;;;19.05;7.82;;;;;;;14.99;100.00;101095.84;4855670;29;20029;-77
2023/05/09 09:33:20;;;;;;;21.08;8.60;;;;;;;15.02;100.00;101079.31;4853084;29;20033;-77
2023/05/09 09:35:50;;;;;;;20.25;8.13;;;;;;;15.06;100.00;101082.63;4855846;29;20469;-77
2023/05/09 09:38:20;;;;;;;21.20;8.90;;;;;;;15.08;100.00;101086.03;4854983;29;20490;-77
2023/05/09 09:40:56;;;;;;;19.67;8.13;;;;;;;15.11;100.00;101081.22;4855496;29;20100;-77
2023/05/09 09:43:29;;;;;;;19.85;7.70;;;;;;;15.17;100.00;101074.41;4855458;29;20025;-77
2023/05/09 09:45:55;;;;;;;18.38;7.35;;;;;;;15.17;100.00;101079.84;4849868;29;20029;-78
2023/05/09 09:48:34;;;;;;;18.90;7.40;;;;;;;15.18;100.00;101078.81;4850571;29;20462;-77
2023/05/09 09:51:07;;;;;;;19.50;7.45;;;;;;;15.18;100.00;101074.28;4849393;29;20580;-77
2023/05/09 09:53:41;;;;;;;18.10;7.03;;;;;;;15.23;100.00;101068.44;4855826;29;20041;-78
2023/05/09 09:56:07;;;;;;;19.73;8.23;;;;;;;15.24;100.00;101077.41;4850538;29;20025;-77
2023/05/09 09:58:33;;;;;;;22.10;8.70;;;;;;;15.26;100.00;101064.63;4853892;29;20026;-77
2023/05/09 10:01:10;;;;;;;18.00;7.25;;;;;;;15.23;100.00;101067.56;4849552;29;20029;-77
2023/05/09 10:03:40;;;;;;;20.23;8.70;;;;;;;15.20;100.00;101063.31;4850977;29;20038;-78
2023/05/09 10:06:13;;;;;;;19.88;7.50;;;;;;;15.21;100.00;101062.28;4852501;29;20461;-77
2023/05/09 10:08:40;;;;;;;20.52;7.55;;;;;;;15.23;100.00;101062.16;4852015;29;20436;-78
2023/05/09 10:11:06;;;;;;;18.52;7.68;;;;;;;15.19;100.00;101057.00;4847056;29;20116;-77
2023/05/09 10:13:35;;;;;;;19.15;7.85;;;;;;;15.24;100.00;101056.59;4850357;29;20120;-77
2023/05/09 10:16:02;;;;;;;20.50;7.68;;;;;;;15.24;100.00;101056.59;4854795;29;20054;-78
2023/05/09 10:18:29;;;;;;;18.17;6.93;;;;;;;15.23;100.00;101054.03;4856001;29;20045;-77
2023/05/09 10:20:56;;;;;;;20.58;7.68;;;;;;;15.19;100.00;101042.63;4854165;29;20156;-77
2023/05/09 10:23:22;;;;;;;21.23;8.07;;;;;;;15.18;100.00;101049.91;4852971;29;20061;-78
2023/05/09 10:26:17;;;;;;;18.45;7.28;;;;;;;15.18;100.00;101049.03;4855355;29;20173;-77
2023/05/09 10:28:44;;;;;;;17.50;6.80;;;;;;;15.11;100.00;101050.56;4857283;29;20021;-78
2023/05/09 10:31:25;;;;;;;17.77;6.82;;;;;;;15.10;100.00;101043.47;4857090;29;20026;-77
2023/05/09 10:33:51;;;;;;;19.75;7.00;;;;;;;15.05;100.00;101033.03;4855574;29;20403;-76
2023/05/09 10:36:19;;;;;;;18.70;7.40;;;;;;;15.02;100.00;101039.59;4860001;29;20213;-77
2023/05/09 10:38:45;;;;;;;19.25;7.30;;;;;;;15.03;100.00;101037.72;4860781;29;20044;-78
2023/05/09 10:41:12;;;;;;;19.25;7.35;;;;;;;15.04;100.00;101023.22;4858738;29;20040;-78
2023/05/09 10:43:38;;;;;;;19.20;7.80;;;;;;;15.07;100.00;101030.22;4859051;29;20390;-77
2023/05/09 10:46:04;;;;;;;20.80;8.02;;;;;;;15.05;100.00;101024.91;4858652;29;20033;-78
2023/05/09 10:48:31;;;;;;;19.10;7.28;;;;;;;15.08;100.00;101021.06;4859408;29;20032;-78
2023/05/09 10:50:58;;;;;;;19.23;7.85;;;;;;;15.08;100.00;101024.66;4859859;29;20372;-77
2023/05/09 10:53:39;;;;;;;18.58;7.85;;;;;;;15.06;100.00;101015.81;4852860;29;20053;-76
2023/05/09 10:56:05;;;;;;;19.40;8.02;;;;;;;15.06;100.00;101013.09;4857674;29;20049;-77
2023/05/09 10:58:32;;;;;;;20.50;7.95;;;;;;;15.08;100.00;101012.97;4859527;29;20037;-77
2023/05/09 11:01:03;;;;;;;19.48;8.07;;;;;;;15.05;100.00;101015.94;4858571;29;20021;-77
2023/05/09 11:03:52;;;;;;;20.58;7.63;;;;;;;15.07;100.00;101014.81;4858020;29;20044;-77